sensor_id;sensor_type;location;lat;lon;timestamp;temperature;humidity
20594;DHT22;10455;48.732;10.266;2023-02-04T00:01:02;5.90;99.90
20594;DHT22;10455;48.732;10.266;2023-02-04T00:06:04;5.80;99.90
20594;DHT22;10455;48.732;10.266;2023-02-04T00:11:06;5.60;99.90
20594;DHT22;10455;48.732;10.266;2023-02-04T00:16:09;5.50;99.90
20594;DHT22;10455;48.732;10.266;2023-02-04T00:21:11;5.20;99.90
20594;DHT22;10455;48.732;10.266;2023-02-04T00:26:13;5.20;99.90
20594;DHT22;10455;48.732;10.266;2023-02-04T00:31:16;5.10;99.90
20594;DHT22;10455;48.732;10.266;2023-02-04T00:36:18;5.10;99.90
20594;DHT22;10455;48.732;10.266;2023-02-04T00:41:20;5.10;99.90
20594;DHT22;10455;48.732;10.266;2023-02-04T00:46:23;5.10;99.90
20594;DHT22;10455;48.732;10.266;2023-02-04T00:51:25;5.10;99.90
20594;DHT22;10455;48.732;10.266;2023-02-04T00:56:27;5.20;99.90
20594;DHT22;10455;48.732;10.266;2023-02-04T01:01:30;5.40;99.90
20594;DHT22;10455;48.732;10.266;2023-02-04T01:06:32;5.20;99.90
20594;DHT22;10455;48.732;10.266;2023-02-04T01:11:34;5.40;99.90
20594;DHT22;10455;48.732;10.266;2023-02-04T01:16:38;5.20;99.90
20594;DHT22;10455;48.732;10.266;2023-02-04T01:21:40;5.30;99.90
20594;DHT22;10455;48.732;10.266;2023-02-04T01:26:42;5.30;99.90
20594;DHT22;10455;48.732;10.266;2023-02-04T01:31:45;5.20;99.90
20594;DHT22;10455;48.732;10.266;2023-02-04T01:36:47;5.30;99.90
20594;DHT22;10455;48.732;10.266;2023-02-04T01:41:49;5.20;99.90
20594;DHT22;10455;48.732;10.266;2023-02-04T01:46:53;5.20;99.90
20594;DHT22;10455;48.732;10.266;2023-02-04T01:51:55;5.20;99.90
20594;DHT22;10455;48.732;10.266;2023-02-04T01:56:57;5.00;99.90
20594;DHT22;10455;48.732;10.266;2023-02-04T02:02:00;4.70;99.90
20594;DHT22;10455;48.732;10.266;2023-02-04T02:07:04;4.70;99.90
20594;DHT22;10455;48.732;10.266;2023-02-04T02:12:06;4.40;99.90
20594;DHT22;10455;48.732;10.266;2023-02-04T02:17:09;4.40;99.90
20594;DHT22;10455;48.732;10.266;2023-02-04T02:22:16;4.30;99.90
20594;DHT22;10455;48.732;10.266;2023-02-04T02:27:22;4.20;99.90
20594;DHT22;10455;48.732;10.266;2023-02-04T02:32:24;4.30;99.90
20594;DHT22;10455;48.732;10.266;2023-02-04T02:37:26;4.30;99.90
20594;DHT22;10455;48.732;10.266;2023-02-04T02:42:30;4.30;99.90
20594;DHT22;10455;48.732;10.266;2023-02-04T02:47:32;4.30;99.90
20594;DHT22;10455;48.732;10.266;2023-02-04T02:52:33;4.40;99.90
20594;DHT22;10455;48.732;10.266;2023-02-04T02:57:37;4.20;99.90
20594;DHT22;10455;48.732;10.266;2023-02-04T03:02:39;4.40;99.90
20594;DHT22;10455;48.732;10.266;2023-02-04T03:07:41;4.40;99.90
20594;DHT22;10455;48.732;10.266;2023-02-04T03:12:45;4.20;99.90
20594;DHT22;10455;48.732;10.266;2023-02-04T03:17:48;4.20;99.90
20594;DHT22;10455;48.732;10.266;2023-02-04T03:22:56;4.20;99.90
20594;DHT22;10455;48.732;10.266;2023-02-04T03:27:59;3.90;99.90
20594;DHT22;10455;48.732;10.266;2023-02-04T03:33:01;3.80;99.90
20594;DHT22;10455;48.732;10.266;2023-02-04T03:38:03;3.90;99.90
20594;DHT22;10455;48.732;10.266;2023-02-04T03:43:07;3.90;99.90
20594;DHT22;10455;48.732;10.266;2023-02-04T03:48:09;4.00;99.90
20594;DHT22;10455;48.732;10.266;2023-02-04T03:53:10;3.90;99.90
20594;DHT22;10455;48.732;10.266;2023-02-04T03:58:14;4.00;99.90
20594;DHT22;10455;48.732;10.266;2023-02-04T04:03:16;4.10;99.90
20594;DHT22;10455;48.732;10.266;2023-02-04T04:08:17;4.00;99.90
20594;DHT22;10455;48.732;10.266;2023-02-04T04:13:21;3.90;99.90
20594;DHT22;10455;48.732;10.266;2023-02-04T04:18:23;3.90;99.90
20594;DHT22;10455;48.732;10.266;2023-02-04T04:23:24;3.70;99.90
20594;DHT22;10455;48.732;10.266;2023-02-04T04:28:28;3.60;99.90
20594;DHT22;10455;48.732;10.266;2023-02-04T04:33:30;3.40;99.90
20594;DHT22;10455;48.732;10.266;2023-02-04T04:38:31;3.30;99.90
20594;DHT22;10455;48.732;10.266;2023-02-04T04:43:35;3.40;99.90
20594;DHT22;10455;48.732;10.266;2023-02-04T04:48:37;3.50;99.90
20594;DHT22;10455;48.732;10.266;2023-02-04T04:53:39;3.60;99.90
20594;DHT22;10455;48.732;10.266;2023-02-04T04:58:42;3.80;99.90
20594;DHT22;10455;48.732;10.266;2023-02-04T05:03:44;3.80;99.90
20594;DHT22;10455;48.732;10.266;2023-02-04T05:08:46;3.90;99.90
20594;DHT22;10455;48.732;10.266;2023-02-04T05:13:49;4.00;99.90
20594;DHT22;10455;48.732;10.266;2023-02-04T05:18:51;3.70;99.90
20594;DHT22;10455;48.732;10.266;2023-02-04T05:23:52;3.40;99.90
20594;DHT22;10455;48.732;10.266;2023-02-04T05:28:56;2.80;99.90
20594;DHT22;10455;48.732;10.266;2023-02-04T05:33:59;2.90;99.90
20594;DHT22;10455;48.732;10.266;2023-02-04T05:39:01;2.70;99.90
20594;DHT22;10455;48.732;10.266;2023-02-04T05:44:05;2.70;99.90
20594;DHT22;10455;48.732;10.266;2023-02-04T05:49:07;2.60;99.90
20594;DHT22;10455;48.732;10.266;2023-02-04T05:54:09;2.60;99.90
20594;DHT22;10455;48.732;10.266;2023-02-04T05:59:12;2.60;99.90
20594;DHT22;10455;48.732;10.266;2023-02-04T06:04:14;2.50;99.90
20594;DHT22;10455;48.732;10.266;2023-02-04T06:09:16;2.30;99.90
20594;DHT22;10455;48.732;10.266;2023-02-04T06:14:19;2.20;99.90
20594;DHT22;10455;48.732;10.266;2023-02-04T06:19:21;2.10;99.90
20594;DHT22;10455;48.732;10.266;2023-02-04T06:24:23;2.20;99.90
20594;DHT22;10455;48.732;10.266;2023-02-04T06:29:26;2.50;99.90
20594;DHT22;10455;48.732;10.266;2023-02-04T06:34:28;2.70;99.90
20594;DHT22;10455;48.732;10.266;2023-02-04T06:39:30;2.90;99.90
20594;DHT22;10455;48.732;10.266;2023-02-04T06:44:33;3.10;99.90
20594;DHT22;10455;48.732;10.266;2023-02-04T06:49:35;3.10;99.90
20594;DHT22;10455;48.732;10.266;2023-02-04T06:54:37;3.20;99.90
20594;DHT22;10455;48.732;10.266;2023-02-04T06:59:41;3.30;99.90
20594;DHT22;10455;48.732;10.266;2023-02-04T07:04:43;3.30;99.90
20594;DHT22;10455;48.732;10.266;2023-02-04T07:09:45;3.30;99.90
20594;DHT22;10455;48.732;10.266;2023-02-04T07:14:48;3.60;99.90
20594;DHT22;10455;48.732;10.266;2023-02-04T07:19:50;3.70;99.90
20594;DHT22;10455;48.732;10.266;2023-02-04T07:24:52;3.70;99.90
20594;DHT22;10455;48.732;10.266;2023-02-04T07:29:55;3.60;99.90
20594;DHT22;10455;48.732;10.266;2023-02-04T07:34:57;3.60;99.90
20594;DHT22;10455;48.732;10.266;2023-02-04T07:39:59;3.80;99.90
20594;DHT22;10455;48.732;10.266;2023-02-04T07:45:02;4.00;99.90
20594;DHT22;10455;48.732;10.266;2023-02-04T07:50:06;4.40;99.90
20594;DHT22;10455;48.732;10.266;2023-02-04T07:55:08;5.00;99.90
20594;DHT22;10455;48.732;10.266;2023-02-04T08:00:12;5.40;99.90
20594;DHT22;10455;48.732;10.266;2023-02-04T08:05:16;5.70;99.90
20594;DHT22;10455;48.732;10.266;2023-02-04T08:10:18;5.60;99.90
20594;DHT22;10455;48.732;10.266;2023-02-04T08:15:22;5.30;99.90
20594;DHT22;10455;48.732;10.266;2023-02-04T08:20:24;5.40;99.90
20594;DHT22;10455;48.732;10.266;2023-02-04T08:25:26;5.40;99.90
20594;DHT22;10455;48.732;10.266;2023-02-04T08:30:29;5.40;99.90
20594;DHT22;10455;48.732;10.266;2023-02-04T08:35:31;5.50;99.90
20594;DHT22;10455;48.732;10.266;2023-02-04T08:40:33;5.50;99.90
20594;DHT22;10455;48.732;10.266;2023-02-04T08:45:36;5.50;99.90
20594;DHT22;10455;48.732;10.266;2023-02-04T08:50:38;5.90;99.90
20594;DHT22;10455;48.732;10.266;2023-02-04T08:55:40;6.20;99.90
20594;DHT22;10455;48.732;10.266;2023-02-04T09:00:43;6.20;99.90
20594;DHT22;10455;48.732;10.266;2023-02-04T09:05:45;6.10;99.90
20594;DHT22;10455;48.732;10.266;2023-02-04T09:10:47;6.20;99.90
20594;DHT22;10455;48.732;10.266;2023-02-04T09:15:50;6.20;99.90
20594;DHT22;10455;48.732;10.266;2023-02-04T09:20:52;6.10;99.90
20594;DHT22;10455;48.732;10.266;2023-02-04T09:25:54;5.00;99.90
20594;DHT22;10455;48.732;10.266;2023-02-04T09:30:57;4.20;99.90
20594;DHT22;10455;48.732;10.266;2023-02-04T09:36:00;4.00;99.90
20594;DHT22;10455;48.732;10.266;2023-02-04T09:41:04;4.00;99.90
20594;DHT22;10455;48.732;10.266;2023-02-04T09:46:13;4.20;99.90
20594;DHT22;10455;48.732;10.266;2023-02-04T09:51:22;3.70;99.90
20594;DHT22;10455;48.732;10.266;2023-02-04T09:56:25;3.20;99.90
20594;DHT22;10455;48.732;10.266;2023-02-04T10:01:29;3.00;99.90
20594;DHT22;10455;48.732;10.266;2023-02-04T10:06:31;3.50;99.90
20594;DHT22;10455;48.732;10.266;2023-02-04T10:11:35;3.50;99.90
20594;DHT22;10455;48.732;10.266;2023-02-04T10:16:40;3.40;99.90
20594;DHT22;10455;48.732;10.266;2023-02-04T10:21:46;3.70;99.90
20594;DHT22;10455;48.732;10.266;2023-02-04T10:26:48;4.00;99.90
20594;DHT22;10455;48.732;10.266;2023-02-04T10:31:52;4.30;99.90
20594;DHT22;10455;48.732;10.266;2023-02-04T10:36:55;5.30;99.90
20594;DHT22;10455;48.732;10.266;2023-02-04T10:41:59;5.40;99.90
20594;DHT22;10455;48.732;10.266;2023-02-04T10:47:04;6.40;99.90
20594;DHT22;10455;48.732;10.266;2023-02-04T10:52:14;6.90;99.90
20594;DHT22;10455;48.732;10.266;2023-02-04T10:57:18;7.80;99.90
20594;DHT22;10455;48.732;10.266;2023-02-04T11:02:35;6.70;99.90
20594;DHT22;10455;48.732;10.266;2023-02-04T11:07:38;5.90;99.90
20594;DHT22;10455;48.732;10.266;2023-02-04T11:12:41;6.70;99.90
20594;DHT22;10455;48.732;10.266;2023-02-04T11:17:45;6.70;99.90
20594;DHT22;10455;48.732;10.266;2023-02-04T11:22:47;7.30;99.90
20594;DHT22;10455;48.732;10.266;2023-02-04T11:27:53;5.10;99.90
20594;DHT22;10455;48.732;10.266;2023-02-04T11:33:00;3.60;99.90
20594;DHT22;10455;48.732;10.266;2023-02-04T11:38:03;3.50;99.90
20594;DHT22;10455;48.732;10.266;2023-02-04T11:43:10;3.60;99.90
20594;DHT22;10455;48.732;10.266;2023-02-04T11:48:17;4.00;99.90
20594;DHT22;10455;48.732;10.266;2023-02-04T11:53:23;5.30;99.90
20594;DHT22;10455;48.732;10.266;2023-02-04T11:58:25;4.60;99.90
20594;DHT22;10455;48.732;10.266;2023-02-04T12:03:32;4.30;99.90
20594;DHT22;10455;48.732;10.266;2023-02-04T12:08:35;4.20;99.90
20594;DHT22;10455;48.732;10.266;2023-02-04T12:13:47;4.20;99.90
20594;DHT22;10455;48.732;10.266;2023-02-04T12:18:51;4.50;99.90
20594;DHT22;10455;48.732;10.266;2023-02-04T12:23:53;4.80;99.90
20594;DHT22;10455;48.732;10.266;2023-02-04T12:28:55;4.90;99.90
20594;DHT22;10455;48.732;10.266;2023-02-04T12:33:58;4.80;99.90
20594;DHT22;10455;48.732;10.266;2023-02-04T12:39:00;4.80;99.90
20594;DHT22;10455;48.732;10.266;2023-02-04T12:44:03;4.90;99.90
20594;DHT22;10455;48.732;10.266;2023-02-04T12:49:06;5.70;99.90
20594;DHT22;10455;48.732;10.266;2023-02-04T12:54:08;6.50;99.90
20594;DHT22;10455;48.732;10.266;2023-02-04T12:59:10;7.40;99.90
20594;DHT22;10455;48.732;10.266;2023-02-04T13:04:13;7.80;99.90
20594;DHT22;10455;48.732;10.266;2023-02-04T13:09:15;6.90;99.90
20594;DHT22;10455;48.732;10.266;2023-02-04T13:14:17;6.00;99.90
20594;DHT22;10455;48.732;10.266;2023-02-04T13:19:20;5.90;99.90
20594;DHT22;10455;48.732;10.266;2023-02-04T13:24:22;5.20;99.90
20594;DHT22;10455;48.732;10.266;2023-02-04T13:29:24;4.90;99.90
20594;DHT22;10455;48.732;10.266;2023-02-04T13:34:27;4.80;99.90
20594;DHT22;10455;48.732;10.266;2023-02-04T13:39:29;4.70;99.90
20594;DHT22;10455;48.732;10.266;2023-02-04T13:44:31;5.70;99.90
20594;DHT22;10455;48.732;10.266;2023-02-04T13:49:34;5.70;99.90
20594;DHT22;10455;48.732;10.266;2023-02-04T13:54:36;5.70;99.90
20594;DHT22;10455;48.732;10.266;2023-02-04T13:59:38;6.80;99.90
20594;DHT22;10455;48.732;10.266;2023-02-04T14:04:41;7.40;99.90
20594;DHT22;10455;48.732;10.266;2023-02-04T14:09:44;7.90;99.90
20594;DHT22;10455;48.732;10.266;2023-02-04T14:14:47;8.20;99.90
20594;DHT22;10455;48.732;10.266;2023-02-04T14:19:50;10.00;99.90
20594;DHT22;10455;48.732;10.266;2023-02-04T14:24:52;11.10;99.90
20594;DHT22;10455;48.732;10.266;2023-02-04T14:29:54;10.40;99.90
20594;DHT22;10455;48.732;10.266;2023-02-04T14:34:57;9.80;99.90
20594;DHT22;10455;48.732;10.266;2023-02-04T14:39:59;9.00;99.90
20594;DHT22;10455;48.732;10.266;2023-02-04T14:45:01;9.00;99.90
20594;DHT22;10455;48.732;10.266;2023-02-04T14:50:08;10.40;99.90
20594;DHT22;10455;48.732;10.266;2023-02-04T14:55:10;12.00;99.90
20594;DHT22;10455;48.732;10.266;2023-02-04T15:00:14;11.70;99.90
20594;DHT22;10455;48.732;10.266;2023-02-04T15:05:18;9.40;99.90
20594;DHT22;10455;48.732;10.266;2023-02-04T15:10:20;7.60;99.90
20594;DHT22;10455;48.732;10.266;2023-02-04T15:15:22;5.70;99.90
20594;DHT22;10455;48.732;10.266;2023-02-04T15:20:25;4.90;99.90
20594;DHT22;10455;48.732;10.266;2023-02-04T15:25:27;5.00;99.90
20594;DHT22;10455;48.732;10.266;2023-02-04T15:30:29;5.00;99.90
20594;DHT22;10455;48.732;10.266;2023-02-04T15:35:32;4.50;99.90
20594;DHT22;10455;48.732;10.266;2023-02-04T15:40:34;4.20;99.90
20594;DHT22;10455;48.732;10.266;2023-02-04T15:45:36;3.80;99.90
20594;DHT22;10455;48.732;10.266;2023-02-04T15:50:42;3.80;99.90
20594;DHT22;10455;48.732;10.266;2023-02-04T15:55:44;3.70;99.90
20594;DHT22;10455;48.732;10.266;2023-02-04T16:00:46;3.60;99.90
20594;DHT22;10455;48.732;10.266;2023-02-04T16:05:49;3.60;99.90
20594;DHT22;10455;48.732;10.266;2023-02-04T16:10:52;3.60;99.90
20594;DHT22;10455;48.732;10.266;2023-02-04T16:15:54;3.40;99.90
20594;DHT22;10455;48.732;10.266;2023-02-04T16:20:57;3.30;99.90
20594;DHT22;10455;48.732;10.266;2023-02-04T16:25:59;3.00;99.90
20594;DHT22;10455;48.732;10.266;2023-02-04T16:31:01;2.80;99.90
20594;DHT22;10455;48.732;10.266;2023-02-04T16:36:07;2.60;99.90
20594;DHT22;10455;48.732;10.266;2023-02-04T16:41:11;2.40;99.90
20594;DHT22;10455;48.732;10.266;2023-02-04T16:46:13;2.20;99.90
20594;DHT22;10455;48.732;10.266;2023-02-04T16:51:17;2.10;99.90
20594;DHT22;10455;48.732;10.266;2023-02-04T16:56:19;2.00;99.90
20594;DHT22;10455;48.732;10.266;2023-02-04T17:01:21;1.80;99.90
20594;DHT22;10455;48.732;10.266;2023-02-04T17:06:25;1.80;99.90
20594;DHT22;10455;48.732;10.266;2023-02-04T17:11:27;1.70;99.90
20594;DHT22;10455;48.732;10.266;2023-02-04T17:16:32;1.60;99.90
20594;DHT22;10455;48.732;10.266;2023-02-04T17:21:35;1.60;99.90
20594;DHT22;10455;48.732;10.266;2023-02-04T17:26:39;1.60;99.90
20594;DHT22;10455;48.732;10.266;2023-02-04T17:31:40;1.40;99.90
20594;DHT22;10455;48.732;10.266;2023-02-04T17:36:44;1.30;99.90
20594;DHT22;10455;48.732;10.266;2023-02-04T17:41:46;1.30;99.90
20594;DHT22;10455;48.732;10.266;2023-02-04T17:46:48;1.00;99.90
20594;DHT22;10455;48.732;10.266;2023-02-04T17:51:51;0.70;99.90
20594;DHT22;10455;48.732;10.266;2023-02-04T17:56:55;0.50;99.90
20594;DHT22;10455;48.732;10.266;2023-02-04T18:01:57;0.10;99.90
20594;DHT22;10455;48.732;10.266;2023-02-04T18:07:00;-0.20;99.90
20594;DHT22;10455;48.732;10.266;2023-02-04T18:12:09;-0.30;99.90
20594;DHT22;10455;48.732;10.266;2023-02-04T18:17:14;-0.40;99.90
20594;DHT22;10455;48.732;10.266;2023-02-04T18:22:18;-0.30;99.90
20594;DHT22;10455;48.732;10.266;2023-02-04T18:27:21;-0.30;99.90
20594;DHT22;10455;48.732;10.266;2023-02-04T18:32:26;-0.20;99.90
20594;DHT22;10455;48.732;10.266;2023-02-04T18:37:32;-0.30;99.90
20594;DHT22;10455;48.732;10.266;2023-02-04T18:42:37;-0.40;99.90
20594;DHT22;10455;48.732;10.266;2023-02-04T18:47:40;-0.40;99.90
20594;DHT22;10455;48.732;10.266;2023-02-04T18:52:43;-0.30;99.90
20594;DHT22;10455;48.732;10.266;2023-02-04T18:57:45;-0.50;99.90
20594;DHT22;10455;48.732;10.266;2023-02-04T19:02:48;-0.60;99.90
20594;DHT22;10455;48.732;10.266;2023-02-04T19:07:57;-0.70;99.90
20594;DHT22;10455;48.732;10.266;2023-02-04T19:13:14;-0.70;99.90
20594;DHT22;10455;48.732;10.266;2023-02-04T19:18:23;-0.80;99.90
20594;DHT22;10455;48.732;10.266;2023-02-04T19:23:33;-0.80;99.90
20594;DHT22;10455;48.732;10.266;2023-02-04T19:28:36;-0.90;99.90
20594;DHT22;10455;48.732;10.266;2023-02-04T19:33:40;-1.00;99.90
20594;DHT22;10455;48.732;10.266;2023-02-04T19:38:46;-1.00;99.90
20594;DHT22;10455;48.732;10.266;2023-02-04T19:43:50;-1.10;99.90
20594;DHT22;10455;48.732;10.266;2023-02-04T19:48:52;-1.10;99.90
20594;DHT22;10455;48.732;10.266;2023-02-04T19:53:59;-1.20;99.90
20594;DHT22;10455;48.732;10.266;2023-02-04T19:59:23;-1.30;99.90
20594;DHT22;10455;48.732;10.266;2023-02-04T20:04:33;-1.40;99.90
20594;DHT22;10455;48.732;10.266;2023-02-04T20:09:37;-1.50;99.90
20594;DHT22;10455;48.732;10.266;2023-02-04T20:14:47;-1.50;99.90
20594;DHT22;10455;48.732;10.266;2023-02-04T20:19:49;-1.50;99.90
20594;DHT22;10455;48.732;10.266;2023-02-04T20:24:54;-1.50;99.90
20594;DHT22;10455;48.732;10.266;2023-02-04T20:29:59;-1.50;99.90
20594;DHT22;10455;48.732;10.266;2023-02-04T20:40:49;-0.90;99.90
20594;DHT22;10455;48.732;10.266;2023-02-04T20:45:53;-0.90;99.90
20594;DHT22;10455;48.732;10.266;2023-02-04T20:50:57;-0.70;99.90
20594;DHT22;10455;48.732;10.266;2023-02-04T20:56:13;-0.70;99.90
20594;DHT22;10455;48.732;10.266;2023-02-04T21:01:26;-0.80;99.90
20594;DHT22;10455;48.732;10.266;2023-02-04T21:06:32;-0.80;99.90
20594;DHT22;10455;48.732;10.266;2023-02-04T21:11:37;-0.90;99.90
20594;DHT22;10455;48.732;10.266;2023-02-04T21:16:39;-1.00;99.90
20594;DHT22;10455;48.732;10.266;2023-02-04T21:21:41;-1.10;99.90
20594;DHT22;10455;48.732;10.266;2023-02-04T21:26:44;-1.20;99.90
20594;DHT22;10455;48.732;10.266;2023-02-04T21:31:46;-1.20;99.90
20594;DHT22;10455;48.732;10.266;2023-02-04T21:36:48;-1.00;99.90
20594;DHT22;10455;48.732;10.266;2023-02-04T21:41:51;-0.90;99.90
20594;DHT22;10455;48.732;10.266;2023-02-04T21:47:09;-0.80;99.90
20594;DHT22;10455;48.732;10.266;2023-02-04T21:52:11;-0.70;99.90
20594;DHT22;10455;48.732;10.266;2023-02-04T21:57:15;-0.60;99.90
20594;DHT22;10455;48.732;10.266;2023-02-04T22:02:17;-0.50;99.90
20594;DHT22;10455;48.732;10.266;2023-02-04T22:07:20;-0.60;99.90
20594;DHT22;10455;48.732;10.266;2023-02-04T22:12:24;-0.60;99.90
20594;DHT22;10455;48.732;10.266;2023-02-04T22:17:25;-0.40;99.90
20594;DHT22;10455;48.732;10.266;2023-02-04T22:22:28;-0.20;99.90
20594;DHT22;10455;48.732;10.266;2023-02-04T22:27:31;-0.30;99.90
20594;DHT22;10455;48.732;10.266;2023-02-04T22:32:33;-0.30;99.90
20594;DHT22;10455;48.732;10.266;2023-02-04T22:37:35;-0.40;99.90
20594;DHT22;10455;48.732;10.266;2023-02-04T22:42:38;-0.50;99.90
20594;DHT22;10455;48.732;10.266;2023-02-04T22:47:40;-0.30;99.90
20594;DHT22;10455;48.732;10.266;2023-02-04T22:52:42;-0.30;99.90
20594;DHT22;10455;48.732;10.266;2023-02-04T22:57:45;-0.20;99.90
20594;DHT22;10455;48.732;10.266;2023-02-04T23:02:47;-0.10;99.90
20594;DHT22;10455;48.732;10.266;2023-02-04T23:07:50;-0.10;99.90
20594;DHT22;10455;48.732;10.266;2023-02-04T23:12:53;-0.20;99.90
20594;DHT22;10455;48.732;10.266;2023-02-04T23:17:55;-0.50;99.90
20594;DHT22;10455;48.732;10.266;2023-02-04T23:22:57;-0.60;99.90
20594;DHT22;10455;48.732;10.266;2023-02-04T23:28:00;-0.70;99.90
20594;DHT22;10455;48.732;10.266;2023-02-04T23:33:02;-1.00;99.90
20594;DHT22;10455;48.732;10.266;2023-02-04T23:38:04;-1.20;99.90
20594;DHT22;10455;48.732;10.266;2023-02-04T23:43:08;-1.10;99.90
20594;DHT22;10455;48.732;10.266;2023-02-04T23:48:10;-1.10;99.90
20594;DHT22;10455;48.732;10.266;2023-02-04T23:53:12;-1.20;99.90
20594;DHT22;10455;48.732;10.266;2023-02-04T23:58:15;-1.20;99.90
